KFRI/FRI METAR and TAF weather

Enter ICAO airport designator
Station Type Date Time Source
KFRI METAR 2021/04/13 22:56 UTC NOAA

KFRI 132256Z AUTO 34007KT 10SM SCT130 15/M04 A3017 RMK AO2 SLP217 T01471036


Station Type Date Time Source
KFRI Decoded METAR 2021/04/13 22:56 UTC NOAA

Fort Riley, Marshall AAF Ft Riley, KS, United States (KFRI) 39-03-20N 096-45-51W
Apr 13, 2021 - 06:56 PM EDT / 2021.04.13 2256 UTC
Wind: from the NNW (340 degrees) at 8 MPH (7 KT):0
Visibility: 10 mile(s):0
Sky conditions: partly cloudy
Temperature: 58.5 F (14.7 C)
Dew Point: 25.5 F (-3.6 C)
Relative Humidity: 28%
Pressure (altimeter): 30.17 in. Hg (1021 hPa)
ob: KFRI 132256Z AUTO 34007KT 10SM SCT130 15/M04 A3017 RMK AO2 SLP217 T01471036
cycle: 23

Station Type Date Time Source
KFRI TAF 2021/04/13 21:19 UTC NOAA

TAF KFRI 132100Z 1321/1503 31009KT 9999 FEW085 QNH3016INS
BECMG 1422/1423 34010G15KT 9999 SCT080 QNH3016INS TX15/1322Z TN05/1412Z

Example: see airport list